sensor_id;sensor_type;location;lat;lon;timestamp;temperature;humidity
21834;DHT22;11079;51.092;3.458;2023-01-09T00:02:26;6.50;99.90
21834;DHT22;11079;51.092;3.458;2023-01-09T00:05:56;6.50;99.90
21834;DHT22;11079;51.092;3.458;2023-01-09T00:09:11;6.60;99.90
21834;DHT22;11079;51.092;3.458;2023-01-09T00:12:05;6.40;99.90
21834;DHT22;11079;51.092;3.458;2023-01-09T00:22:14;6.40;99.90
21834;DHT22;11079;51.092;3.458;2023-01-09T00:25:20;6.30;99.90
21834;DHT22;11079;51.092;3.458;2023-01-09T00:38:38;6.30;99.90
21834;DHT22;11079;51.092;3.458;2023-01-09T00:44:40;6.40;99.90
21834;DHT22;11079;51.092;3.458;2023-01-09T00:54:09;6.30;99.90
21834;DHT22;11079;51.092;3.458;2023-01-09T01:00:29;6.30;99.90
21834;DHT22;11079;51.092;3.458;2023-01-09T01:03:48;6.40;99.90
21834;DHT22;11079;51.092;3.458;2023-01-09T01:10:02;6.30;99.90
21834;DHT22;11079;51.092;3.458;2023-01-09T01:12:44;6.30;99.90
21834;DHT22;11079;51.092;3.458;2023-01-09T01:18:38;6.30;99.90
21834;DHT22;11079;51.092;3.458;2023-01-09T01:31:24;6.40;99.90
21834;DHT22;11079;51.092;3.458;2023-01-09T01:37:22;6.60;99.90
21834;DHT22;11079;51.092;3.458;2023-01-09T01:39:57;6.40;99.90
21834;DHT22;11079;51.092;3.458;2023-01-09T01:42:54;6.50;99.90
21834;DHT22;11079;51.092;3.458;2023-01-09T01:46:14;6.60;99.90
21834;DHT22;11079;51.092;3.458;2023-01-09T01:49:41;6.60;99.90
21834;DHT22;11079;51.092;3.458;2023-01-09T07:35:34;8.20;99.90
21834;DHT22;11079;51.092;3.458;2023-01-09T07:38:10;8.20;99.90
21834;DHT22;11079;51.092;3.458;2023-01-09T07:41:00;8.30;99.90
21834;DHT22;11079;51.092;3.458;2023-01-09T07:43:35;8.20;99.90
21834;DHT22;11079;51.092;3.458;2023-01-09T07:46:21;8.30;99.90
21834;DHT22;11079;51.092;3.458;2023-01-09T07:48:49;8.40;99.90
21834;DHT22;11079;51.092;3.458;2023-01-09T07:51:33;8.30;99.90
21834;DHT22;11079;51.092;3.458;2023-01-09T07:54:25;8.20;99.90
21834;DHT22;11079;51.092;3.458;2023-01-09T07:57:08;8.30;99.90
21834;DHT22;11079;51.092;3.458;2023-01-09T07:59:53;8.30;99.90
21834;DHT22;11079;51.092;3.458;2023-01-09T08:02:24;8.30;99.90
21834;DHT22;11079;51.092;3.458;2023-01-09T08:04:55;8.30;99.90
21834;DHT22;11079;51.092;3.458;2023-01-09T08:07:23;8.20;99.90
21834;DHT22;11079;51.092;3.458;2023-01-09T08:10:12;8.10;99.90
21834;DHT22;11079;51.092;3.458;2023-01-09T08:16:04;8.10;99.90
21834;DHT22;11079;51.092;3.458;2023-01-09T08:18:52;8.20;99.90
21834;DHT22;11079;51.092;3.458;2023-01-09T08:21:17;8.30;99.90
21834;DHT22;11079;51.092;3.458;2023-01-09T08:23:43;8.30;99.90
21834;DHT22;11079;51.092;3.458;2023-01-09T08:29:05;8.20;99.90
21834;DHT22;11079;51.092;3.458;2023-01-09T08:32:04;8.20;99.90
21834;DHT22;11079;51.092;3.458;2023-01-09T08:34:40;8.10;99.90
21834;DHT22;11079;51.092;3.458;2023-01-09T08:37:06;8.20;99.90
21834;DHT22;11079;51.092;3.458;2023-01-09T08:39:41;8.30;99.90
21834;DHT22;11079;51.092;3.458;2023-01-09T08:42:42;8.20;99.90
21834;DHT22;11079;51.092;3.458;2023-01-09T08:45:29;8.20;99.90
21834;DHT22;11079;51.092;3.458;2023-01-09T08:48:13;8.40;99.90
21834;DHT22;11079;51.092;3.458;2023-01-09T08:51:05;8.50;99.90
21834;DHT22;11079;51.092;3.458;2023-01-09T08:53:43;8.70;99.90
21834;DHT22;11079;51.092;3.458;2023-01-09T08:56:46;8.50;99.90
21834;DHT22;11079;51.092;3.458;2023-01-09T08:59:23;8.50;99.90
21834;DHT22;11079;51.092;3.458;2023-01-09T09:02:05;8.50;99.90
21834;DHT22;11079;51.092;3.458;2023-01-09T09:05:19;8.50;99.90
21834;DHT22;11079;51.092;3.458;2023-01-09T09:08:04;8.50;99.90
21834;DHT22;11079;51.092;3.458;2023-01-09T09:11:02;8.60;99.90
21834;DHT22;11079;51.092;3.458;2023-01-09T09:13:46;8.70;99.90
21834;DHT22;11079;51.092;3.458;2023-01-09T09:16:12;9.00;99.90
21834;DHT22;11079;51.092;3.458;2023-01-09T09:19:06;9.20;99.90
21834;DHT22;11079;51.092;3.458;2023-01-09T09:22:08;9.30;99.90
21834;DHT22;11079;51.092;3.458;2023-01-09T09:24:56;9.70;99.90
21834;DHT22;11079;51.092;3.458;2023-01-09T09:27:40;9.90;99.90
21834;DHT22;11079;51.092;3.458;2023-01-09T09:37:59;9.40;99.90
21834;DHT22;11079;51.092;3.458;2023-01-09T10:46:42;9.90;99.90
21834;DHT22;11079;51.092;3.458;2023-01-09T10:56:40;9.80;99.90
21834;DHT22;11079;51.092;3.458;2023-01-09T11:47:42;11.30;99.90
21834;DHT22;11079;51.092;3.458;2023-01-09T11:50:31;11.20;99.90
21834;DHT22;11079;51.092;3.458;2023-01-09T11:59:50;11.70;99.90
21834;DHT22;11079;51.092;3.458;2023-01-09T12:02:34;12.10;99.90
21834;DHT22;11079;51.092;3.458;2023-01-09T12:23:42;12.20;99.90
21834;DHT22;11079;51.092;3.458;2023-01-09T12:34:47;11.40;99.90
21834;DHT22;11079;51.092;3.458;2023-01-09T12:53:17;10.10;99.90
21834;DHT22;11079;51.092;3.458;2023-01-09T12:56:21;10.00;99.90
21834;DHT22;11079;51.092;3.458;2023-01-09T13:02:41;10.10;99.90
21834;DHT22;11079;51.092;3.458;2023-01-09T13:09:03;9.90;99.90
21834;DHT22;11079;51.092;3.458;2023-01-09T13:14:52;9.60;99.90
21834;DHT22;11079;51.092;3.458;2023-01-09T13:20:21;9.50;99.90
21834;DHT22;11079;51.092;3.458;2023-01-09T13:22:58;9.50;99.90
21834;DHT22;11079;51.092;3.458;2023-01-09T13:25:48;9.60;99.90
21834;DHT22;11079;51.092;3.458;2023-01-09T13:28:53;9.70;99.90
21834;DHT22;11079;51.092;3.458;2023-01-09T13:31:38;10.00;99.90
21834;DHT22;11079;51.092;3.458;2023-01-09T13:34:34;10.10;99.90
21834;DHT22;11079;51.092;3.458;2023-01-09T13:37:06;10.10;99.90
21834;DHT22;11079;51.092;3.458;2023-01-09T13:40:23;10.30;99.90
21834;DHT22;11079;51.092;3.458;2023-01-09T13:43:12;10.60;99.90
21834;DHT22;11079;51.092;3.458;2023-01-09T13:45:52;10.50;99.90
21834;DHT22;11079;51.092;3.458;2023-01-09T13:48:27;10.30;99.90
21834;DHT22;11079;51.092;3.458;2023-01-09T13:57:44;9.70;99.90
21834;DHT22;11079;51.092;3.458;2023-01-09T14:02:55;9.40;99.90
21834;DHT22;11079;51.092;3.458;2023-01-09T14:11:35;9.30;99.90
21834;DHT22;11079;51.092;3.458;2023-01-09T14:14:34;9.30;99.90
21834;DHT22;11079;51.092;3.458;2023-01-09T14:16:59;9.40;99.90
21834;DHT22;11079;51.092;3.458;2023-01-09T14:20:19;9.40;99.90
21834;DHT22;11079;51.092;3.458;2023-01-09T14:22:35;9.30;99.90
21834;DHT22;11079;51.092;3.458;2023-01-09T14:25:13;9.50;99.90
21834;DHT22;11079;51.092;3.458;2023-01-09T14:28:05;9.60;99.90
21834;DHT22;11079;51.092;3.458;2023-01-09T14:33:25;9.80;99.90
21834;DHT22;11079;51.092;3.458;2023-01-09T14:36:16;9.90;99.90
21834;DHT22;11079;51.092;3.458;2023-01-09T14:39:02;10.10;99.90
21834;DHT22;11079;51.092;3.458;2023-01-09T14:41:37;10.20;99.90
21834;DHT22;11079;51.092;3.458;2023-01-09T14:48:18;9.90;99.90
21834;DHT22;11079;51.092;3.458;2023-01-09T14:50:56;9.30;99.90
21834;DHT22;11079;51.092;3.458;2023-01-09T14:53:33;8.90;99.90
21834;DHT22;11079;51.092;3.458;2023-01-09T14:59:16;8.80;99.90
21834;DHT22;11079;51.092;3.458;2023-01-09T15:01:44;9.00;99.90
21834;DHT22;11079;51.092;3.458;2023-01-09T15:04:39;8.90;99.90
21834;DHT22;11079;51.092;3.458;2023-01-09T15:07:22;8.90;99.90
21834;DHT22;11079;51.092;3.458;2023-01-09T15:09:51;8.80;99.90
21834;DHT22;11079;51.092;3.458;2023-01-09T15:12:19;8.90;99.90
21834;DHT22;11079;51.092;3.458;2023-01-09T15:14:52;8.70;99.90
21834;DHT22;11079;51.092;3.458;2023-01-09T15:17:33;8.60;99.90
21834;DHT22;11079;51.092;3.458;2023-01-09T15:20:16;8.60;99.90
21834;DHT22;11079;51.092;3.458;2023-01-09T15:22:48;8.70;99.90
21834;DHT22;11079;51.092;3.458;2023-01-09T15:25:34;8.60;99.90
21834;DHT22;11079;51.092;3.458;2023-01-09T15:28:11;8.60;99.90
21834;DHT22;11079;51.092;3.458;2023-01-09T15:31:06;8.60;99.90
21834;DHT22;11079;51.092;3.458;2023-01-09T15:33:38;8.70;99.90
21834;DHT22;11079;51.092;3.458;2023-01-09T15:36:12;8.70;99.90
21834;DHT22;11079;51.092;3.458;2023-01-09T15:38:41;8.70;99.90
21834;DHT22;11079;51.092;3.458;2023-01-09T15:41:14;8.70;99.90
21834;DHT22;11079;51.092;3.458;2023-01-09T15:44:02;8.80;99.90
21834;DHT22;11079;51.092;3.458;2023-01-09T15:46:41;8.90;99.90
21834;DHT22;11079;51.092;3.458;2023-01-09T16:03:37;8.80;99.90
21834;DHT22;11079;51.092;3.458;2023-01-09T16:06:27;8.90;99.90
21834;DHT22;11079;51.092;3.458;2023-01-09T16:08:59;8.60;99.90
21834;DHT22;11079;51.092;3.458;2023-01-09T16:11:57;8.70;99.90
21834;DHT22;11079;51.092;3.458;2023-01-09T16:14:39;8.70;99.90
21834;DHT22;11079;51.092;3.458;2023-01-09T16:20:36;8.80;99.90
21834;DHT22;11079;51.092;3.458;2023-01-09T17:18:33;7.40;99.90
21834;DHT22;11079;51.092;3.458;2023-01-09T17:21:46;7.40;99.90
21834;DHT22;11079;51.092;3.458;2023-01-09T17:24:30;7.40;99.90
21834;DHT22;11079;51.092;3.458;2023-01-09T17:27:15;7.40;99.90
21834;DHT22;11079;51.092;3.458;2023-01-09T17:30:29;7.50;99.90
21834;DHT22;11079;51.092;3.458;2023-01-09T17:44:15;7.60;99.90
21834;DHT22;11079;51.092;3.458;2023-01-09T17:46:49;7.40;99.90
21834;DHT22;11079;51.092;3.458;2023-01-09T17:49:32;7.50;99.90
21834;DHT22;11079;51.092;3.458;2023-01-09T17:52:15;7.60;99.90
21834;DHT22;11079;51.092;3.458;2023-01-09T17:54:41;7.80;99.90
21834;DHT22;11079;51.092;3.458;2023-01-09T18:00:30;7.80;99.90
21834;DHT22;11079;51.092;3.458;2023-01-09T18:03:07;7.70;99.90
21834;DHT22;11079;51.092;3.458;2023-01-09T18:05:33;7.70;99.90
21834;DHT22;11079;51.092;3.458;2023-01-09T18:08:01;7.60;99.90
21834;DHT22;11079;51.092;3.458;2023-01-09T18:10:34;7.60;99.90
21834;DHT22;11079;51.092;3.458;2023-01-09T18:13:02;7.70;99.90
21834;DHT22;11079;51.092;3.458;2023-01-09T18:15:29;7.80;99.90
21834;DHT22;11079;51.092;3.458;2023-01-09T18:17:54;7.90;99.90
21834;DHT22;11079;51.092;3.458;2023-01-09T18:20:24;7.80;99.90
21834;DHT22;11079;51.092;3.458;2023-01-09T18:22:51;7.90;99.90
21834;DHT22;11079;51.092;3.458;2023-01-09T18:25:18;7.80;99.90
21834;DHT22;11079;51.092;3.458;2023-01-09T18:27:44;7.90;99.90
21834;DHT22;11079;51.092;3.458;2023-01-09T18:30:12;7.90;99.90
21834;DHT22;11079;51.092;3.458;2023-01-09T18:32:38;7.80;99.90
21834;DHT22;11079;51.092;3.458;2023-01-09T18:35:06;7.90;99.90
21834;DHT22;11079;51.092;3.458;2023-01-09T18:37:37;7.90;99.90
21834;DHT22;11079;51.092;3.458;2023-01-09T18:40:05;7.90;99.90
21834;DHT22;11079;51.092;3.458;2023-01-09T18:42:31;7.90;99.90
21834;DHT22;11079;51.092;3.458;2023-01-09T18:44:58;7.90;99.90
21834;DHT22;11079;51.092;3.458;2023-01-09T18:47:23;7.80;99.90
21834;DHT22;11079;51.092;3.458;2023-01-09T18:49:51;7.60;99.90
21834;DHT22;11079;51.092;3.458;2023-01-09T18:52:18;7.60;99.90
21834;DHT22;11079;51.092;3.458;2023-01-09T18:54:44;7.60;99.90
21834;DHT22;11079;51.092;3.458;2023-01-09T18:57:10;7.50;99.90
21834;DHT22;11079;51.092;3.458;2023-01-09T18:59:39;7.50;99.90
21834;DHT22;11079;51.092;3.458;2023-01-09T19:02:05;7.40;99.90
21834;DHT22;11079;51.092;3.458;2023-01-09T19:04:31;7.40;99.90
21834;DHT22;11079;51.092;3.458;2023-01-09T19:06:56;7.40;99.90
21834;DHT22;11079;51.092;3.458;2023-01-09T19:09:23;7.40;99.90
21834;DHT22;11079;51.092;3.458;2023-01-09T19:11:50;7.50;99.90
21834;DHT22;11079;51.092;3.458;2023-01-09T19:14:16;7.50;99.90
21834;DHT22;11079;51.092;3.458;2023-01-09T19:16:43;7.50;99.90
21834;DHT22;11079;51.092;3.458;2023-01-09T19:19:09;7.50;99.90
21834;DHT22;11079;51.092;3.458;2023-01-09T19:21:35;7.60;99.90
21834;DHT22;11079;51.092;3.458;2023-01-09T19:24:01;7.70;99.90
21834;DHT22;11079;51.092;3.458;2023-01-09T19:26:31;7.80;99.90
21834;DHT22;11079;51.092;3.458;2023-01-09T19:28:57;7.80;99.90
21834;DHT22;11079;51.092;3.458;2023-01-09T19:31:34;7.70;99.90
21834;DHT22;11079;51.092;3.458;2023-01-09T19:34:00;7.60;99.90
21834;DHT22;11079;51.092;3.458;2023-01-09T19:36:27;7.70;99.90
21834;DHT22;11079;51.092;3.458;2023-01-09T19:38:58;7.80;99.90
21834;DHT22;11079;51.092;3.458;2023-01-09T19:41:24;7.90;99.90
21834;DHT22;11079;51.092;3.458;2023-01-09T19:43:50;7.80;99.90
21834;DHT22;11079;51.092;3.458;2023-01-09T19:46:19;7.80;99.90
21834;DHT22;11079;51.092;3.458;2023-01-09T19:48:46;7.80;99.90
21834;DHT22;11079;51.092;3.458;2023-01-09T19:51:13;7.70;99.90
21834;DHT22;11079;51.092;3.458;2023-01-09T19:53:40;7.80;99.90
21834;DHT22;11079;51.092;3.458;2023-01-09T19:56:25;7.80;99.90
21834;DHT22;11079;51.092;3.458;2023-01-09T19:59:01;7.80;99.90
21834;DHT22;11079;51.092;3.458;2023-01-09T20:01:33;7.80;99.90
21834;DHT22;11079;51.092;3.458;2023-01-09T20:04:00;7.70;99.90
21834;DHT22;11079;51.092;3.458;2023-01-09T20:06:40;7.60;99.90
21834;DHT22;11079;51.092;3.458;2023-01-09T20:09:07;7.80;99.90
21834;DHT22;11079;51.092;3.458;2023-01-09T20:11:35;7.80;99.90
21834;DHT22;11079;51.092;3.458;2023-01-09T20:14:00;7.80;99.90
21834;DHT22;11079;51.092;3.458;2023-01-09T20:16:28;7.90;99.90
21834;DHT22;11079;51.092;3.458;2023-01-09T20:18:57;7.90;99.90
21834;DHT22;11079;51.092;3.458;2023-01-09T20:21:28;7.80;99.90
21834;DHT22;11079;51.092;3.458;2023-01-09T20:23:57;7.80;99.90
21834;DHT22;11079;51.092;3.458;2023-01-09T20:26:28;7.80;99.90
21834;DHT22;11079;51.092;3.458;2023-01-09T20:28:54;7.70;99.90
21834;DHT22;11079;51.092;3.458;2023-01-09T20:31:22;7.60;99.90
21834;DHT22;11079;51.092;3.458;2023-01-09T20:33:49;7.60;99.90
21834;DHT22;11079;51.092;3.458;2023-01-09T20:36:17;7.60;99.90
21834;DHT22;11079;51.092;3.458;2023-01-09T20:38:46;7.60;99.90
21834;DHT22;11079;51.092;3.458;2023-01-09T20:41:14;7.60;99.90
21834;DHT22;11079;51.092;3.458;2023-01-09T20:43:53;7.50;99.90
21834;DHT22;11079;51.092;3.458;2023-01-09T20:46:30;7.50;99.90
21834;DHT22;11079;51.092;3.458;2023-01-09T20:48:58;7.50;99.90
21834;DHT22;11079;51.092;3.458;2023-01-09T20:51:27;7.50;99.90
21834;DHT22;11079;51.092;3.458;2023-01-09T20:53:53;7.60;99.90
21834;DHT22;11079;51.092;3.458;2023-01-09T20:56:26;7.60;99.90
21834;DHT22;11079;51.092;3.458;2023-01-09T20:58:52;7.70;99.90
21834;DHT22;11079;51.092;3.458;2023-01-09T21:01:18;7.70;99.90
21834;DHT22;11079;51.092;3.458;2023-01-09T21:03:44;7.80;99.90
21834;DHT22;11079;51.092;3.458;2023-01-09T21:06:12;7.90;99.90
21834;DHT22;11079;51.092;3.458;2023-01-09T21:08:39;7.80;99.90
21834;DHT22;11079;51.092;3.458;2023-01-09T21:11:06;7.90;99.90
21834;DHT22;11079;51.092;3.458;2023-01-09T21:13:32;8.00;99.90
21834;DHT22;11079;51.092;3.458;2023-01-09T21:16:02;7.90;99.90
21834;DHT22;11079;51.092;3.458;2023-01-09T21:18:28;7.90;99.90
21834;DHT22;11079;51.092;3.458;2023-01-09T21:20:54;8.10;99.90
21834;DHT22;11079;51.092;3.458;2023-01-09T21:23:20;7.90;99.90
21834;DHT22;11079;51.092;3.458;2023-01-09T21:25:46;8.00;99.90
21834;DHT22;11079;51.092;3.458;2023-01-09T21:28:14;7.90;99.90
21834;DHT22;11079;51.092;3.458;2023-01-09T21:30:41;8.00;99.90
21834;DHT22;11079;51.092;3.458;2023-01-09T21:33:09;7.90;99.90
21834;DHT22;11079;51.092;3.458;2023-01-09T21:35:35;7.90;99.90
21834;DHT22;11079;51.092;3.458;2023-01-09T21:38:00;7.80;99.90
21834;DHT22;11079;51.092;3.458;2023-01-09T21:40:26;7.70;99.90
21834;DHT22;11079;51.092;3.458;2023-01-09T21:42:52;7.90;99.90
21834;DHT22;11079;51.092;3.458;2023-01-09T21:45:37;7.90;99.90
21834;DHT22;11079;51.092;3.458;2023-01-09T21:48:22;7.80;99.90
21834;DHT22;11079;51.092;3.458;2023-01-09T21:54:13;7.60;99.90
21834;DHT22;11079;51.092;3.458;2023-01-09T21:56:39;7.70;99.90
21834;DHT22;11079;51.092;3.458;2023-01-09T21:59:04;7.60;99.90
21834;DHT22;11079;51.092;3.458;2023-01-09T22:01:30;7.30;99.90
21834;DHT22;11079;51.092;3.458;2023-01-09T22:03:56;7.30;99.90
21834;DHT22;11079;51.092;3.458;2023-01-09T22:06:22;7.20;99.90
21834;DHT22;11079;51.092;3.458;2023-01-09T22:08:48;7.00;99.90
21834;DHT22;11079;51.092;3.458;2023-01-09T22:11:14;6.90;99.90
21834;DHT22;11079;51.092;3.458;2023-01-09T22:13:40;6.80;99.90
21834;DHT22;11079;51.092;3.458;2023-01-09T22:16:08;6.90;99.90
21834;DHT22;11079;51.092;3.458;2023-01-09T22:18:35;7.10;99.90
21834;DHT22;11079;51.092;3.458;2023-01-09T22:21:01;7.20;99.90
21834;DHT22;11079;51.092;3.458;2023-01-09T22:23:36;7.00;99.90
21834;DHT22;11079;51.092;3.458;2023-01-09T22:26:07;7.20;99.90
21834;DHT22;11079;51.092;3.458;2023-01-09T22:28:51;7.10;99.90
